createdAt,value
2022-08-09T00:00:50.440Z,47.73
2022-08-09T00:01:56.271Z,47.70
2022-08-09T00:03:01.058Z,48.28
2022-08-09T00:04:15.262Z,47.66
2022-08-09T00:06:18.957Z,47.98
2022-08-09T00:06:47.928Z,48.03
2022-08-09T00:07:49.683Z,47.82
2022-08-09T00:08:57.475Z,48.20
2022-08-09T00:09:59.657Z,48.22
2022-08-09T00:11:05.991Z,48.16
2022-08-09T00:12:29.838Z,48.62
2022-08-09T00:13:38.331Z,48.42
2022-08-09T00:14:40.349Z,48.16
2022-08-09T00:15:59.508Z,48.00
2022-08-09T00:17:04.239Z,48.04
2022-08-09T00:18:11.331Z,47.86
2022-08-09T00:19:18.444Z,47.99
2022-08-09T00:20:23.065Z,48.06
2022-08-09T00:21:25.207Z,48.03
2022-08-09T00:22:31.727Z,48.09
2022-08-09T00:23:57.235Z,48.14
2022-08-09T00:25:00.180Z,47.90
2022-08-09T00:26:07.265Z,47.59
2022-08-09T00:27:10.790Z,47.72
2022-08-09T00:28:12.797Z,47.71
2022-08-09T00:30:10.417Z,47.97
2022-08-09T00:30:37.775Z,47.98
2022-08-09T00:32:00.055Z,48.04
2022-08-09T00:33:01.840Z,48.05
2022-08-09T00:34:03.680Z,48.17
2022-08-09T00:35:09.186Z,48.30
2022-08-09T00:36:12.324Z,48.25
2022-08-09T00:37:15.621Z,48.03
2022-08-09T00:38:21.451Z,48.21
2022-08-09T00:40:14.007Z,48.46
2022-08-09T00:40:52.657Z,48.69
2022-08-09T00:44:11.784Z,48.97
2022-08-09T00:44:16.858Z,48.70
2022-08-09T00:44:46.955Z,49.71
2022-08-09T00:45:53.775Z,49.75
2022-08-09T00:47:05.010Z,49.93
2022-08-09T00:48:10.062Z,49.90
2022-08-09T00:49:17.660Z,49.77
2022-08-09T00:50:25.403Z,49.79
2022-08-09T00:51:33.770Z,50.00
2022-08-09T00:52:37.214Z,49.67
2022-08-09T00:53:40.063Z,49.57
2022-08-09T00:54:41.753Z,49.48
2022-08-09T00:56:03.127Z,49.21
2022-08-09T00:57:10.215Z,48.98
2022-08-09T00:58:14.580Z,49.22
2022-08-09T00:59:20.139Z,49.37
2022-08-09T01:00:40.862Z,49.70
2022-08-09T01:01:45.312Z,49.57
2022-08-09T01:02:50.225Z,50.19
2022-08-09T01:04:01.086Z,50.23
2022-08-09T01:05:03.311Z,50.70
2022-08-09T01:06:17.942Z,50.70
2022-08-09T01:07:37.884Z,50.83
2022-08-09T01:09:20.188Z,50.68
2022-08-09T01:10:39.050Z,50.80
2022-08-09T01:12:00.068Z,50.60
2022-08-09T01:13:53.538Z,50.04
2022-08-09T01:14:58.298Z,50.05
2022-08-09T01:16:04.998Z,49.89
2022-08-09T01:17:12.174Z,49.80
2022-08-09T01:18:30.378Z,49.85
2022-08-09T01:19:40.042Z,49.95
2022-08-09T01:21:17.493Z,50.28
2022-08-09T01:23:04.510Z,50.54
2022-08-09T01:24:18.704Z,50.86
2022-08-09T01:25:41.507Z,50.82
2022-08-09T01:27:15.336Z,51.32
2022-08-09T01:28:22.390Z,51.19
2022-08-09T01:29:41.135Z,51.08
2022-08-09T01:30:59.046Z,50.97
2022-08-09T01:32:32.698Z,51.13
2022-08-09T01:33:29.808Z,51.11
2022-08-09T01:34:35.341Z,51.50
2022-08-09T01:35:51.835Z,51.85
2022-08-09T01:36:57.794Z,52.21
2022-08-09T01:38:08.161Z,51.91
2022-08-09T01:39:14.064Z,52.36
2022-08-09T01:40:23.093Z,51.93
2022-08-09T01:41:32.920Z,51.71
2022-08-09T01:42:36.866Z,51.23
2022-08-09T01:43:51.889Z,50.82
2022-08-09T01:44:55.837Z,51.08
2022-08-09T01:45:58.120Z,51.18
2022-08-09T01:47:02.738Z,51.67
2022-08-09T01:48:06.237Z,51.55
2022-08-09T01:49:21.129Z,51.29
2022-08-09T01:50:36.639Z,51.38
2022-08-09T01:51:53.922Z,51.82
2022-08-09T01:52:57.992Z,51.15
2022-08-09T01:54:07.154Z,50.92
2022-08-09T01:55:10.866Z,51.40
2022-08-09T01:56:13.531Z,51.37
2022-08-09T01:57:23.798Z,51.84
2022-08-09T01:58:29.868Z,51.90
2022-08-09T01:59:32.738Z,51.74
2022-08-09T02:00:46.372Z,51.95
2022-08-09T02:01:59.367Z,52.14
2022-08-09T02:03:04.894Z,51.66
2022-08-09T02:04:09.779Z,51.67
2022-08-09T02:05:15.730Z,51.28
2022-08-09T02:06:39.810Z,51.21
2022-08-09T02:08:38.672Z,50.43
2022-08-09T02:09:16.491Z,50.29
2022-08-09T02:10:29.950Z,50.28
2022-08-09T02:11:42.622Z,49.90
2022-08-09T02:12:47.095Z,49.49
2022-08-09T02:14:06.658Z,49.63
2022-08-09T02:15:11.766Z,50.00
2022-08-09T02:16:33.844Z,50.21
2022-08-09T02:18:09.763Z,50.64
2022-08-09T02:19:10.148Z,51.11
2022-08-09T02:20:13.060Z,51.47
2022-08-09T02:21:34.307Z,51.75
2022-08-09T02:22:46.346Z,51.95
2022-08-09T02:23:54.523Z,51.76
2022-08-09T02:25:00.423Z,51.83
2022-08-09T02:26:04.935Z,51.97
2022-08-09T02:27:09.710Z,52.17
2022-08-09T02:28:20.148Z,52.18
2022-08-09T02:29:29.225Z,52.36
2022-08-09T02:31:05.898Z,52.61
2022-08-09T02:32:11.023Z,52.78
2022-08-09T02:33:17.330Z,53.18
2022-08-09T02:34:40.644Z,53.94
2022-08-09T02:36:03.897Z,54.15
2022-08-09T02:37:12.324Z,54.32
2022-08-09T02:38:22.064Z,54.19
2022-08-09T02:39:41.867Z,54.22
2022-08-09T02:40:46.651Z,54.29
2022-08-09T02:41:56.559Z,54.51
2022-08-09T02:43:01.638Z,54.33
2022-08-09T02:44:13.798Z,54.36
2022-08-09T02:45:34.458Z,54.56
2022-08-09T02:46:38.460Z,54.43
2022-08-09T02:47:57.170Z,54.39
2022-08-09T02:49:04.617Z,54.27
2022-08-09T02:50:24.355Z,54.09
2022-08-09T02:51:33.043Z,54.18
2022-08-09T02:52:48.590Z,54.01
2022-08-09T02:54:00.877Z,53.92
2022-08-09T02:55:15.203Z,53.67
2022-08-09T02:56:23.897Z,53.43
2022-08-09T02:57:30.984Z,53.33
2022-08-09T02:58:44.376Z,53.36
2022-08-09T03:00:21.273Z,53.21
2022-08-09T03:01:15.308Z,53.33
2022-08-09T03:02:24.522Z,53.23
2022-08-09T03:04:12.470Z,53.12
2022-08-09T03:04:52.253Z,53.21
2022-08-09T03:05:57.142Z,53.56
2022-08-09T03:07:12.438Z,53.68
2022-08-09T03:08:17.128Z,53.81
2022-08-09T03:09:20.476Z,53.54
2022-08-09T03:10:24.308Z,53.58
2022-08-09T03:12:04.393Z,53.72
2022-08-09T03:12:52.023Z,53.62
2022-08-09T03:14:01.186Z,54.04
2022-08-09T03:15:05.891Z,53.92
2022-08-09T03:16:08.461Z,54.02
2022-08-09T03:17:20.503Z,53.83
2022-08-09T03:18:30.657Z,54.26
2022-08-09T03:19:52.737Z,54.10
2022-08-09T03:20:57.587Z,54.30
2022-08-09T03:22:03.139Z,54.47
2022-08-09T03:23:14.977Z,54.24
2022-08-09T03:24:31.606Z,54.38
2022-08-09T03:25:59.079Z,54.39
2022-08-09T03:27:09.481Z,54.42
2022-08-09T03:28:13.769Z,54.40
2022-08-09T03:29:22.788Z,54.37
2022-08-09T03:30:29.800Z,54.30
2022-08-09T03:31:42.532Z,54.22
2022-08-09T03:32:59.947Z,54.22
2022-08-09T03:34:03.193Z,54.20
2022-08-09T03:35:24.277Z,54.33
2022-08-09T03:36:28.074Z,54.40
2022-08-09T03:37:55.548Z,54.77
2022-08-09T03:38:52.021Z,54.66
2022-08-09T03:39:56.606Z,54.96
2022-08-09T03:40:58.549Z,54.83
2022-08-09T03:42:06.893Z,54.62
2022-08-09T03:43:08.989Z,54.97
2022-08-09T03:44:13.419Z,54.96
2022-08-09T03:45:17.559Z,54.79
2022-08-09T03:46:39.509Z,54.66
2022-08-09T03:47:44.109Z,54.71
2022-08-09T03:48:57.013Z,54.79
2022-08-09T03:50:00.837Z,54.79
2022-08-09T03:51:07.275Z,54.72
2022-08-09T03:52:30.331Z,54.60
2022-08-09T03:53:37.670Z,54.76
2022-08-09T03:54:40.627Z,54.78
2022-08-09T03:55:42.512Z,54.75
2022-08-09T03:56:46.632Z,54.83
2022-08-09T03:58:03.132Z,54.68
2022-08-09T03:59:13.697Z,54.51
2022-08-09T04:00:23.228Z,54.51
2022-08-09T04:01:25.114Z,54.70
2022-08-09T04:02:32.559Z,54.93
2022-08-09T04:04:00.458Z,54.96
2022-08-09T04:05:05.983Z,54.95
2022-08-09T04:06:08.604Z,54.88
2022-08-09T04:07:14.395Z,54.92
2022-08-09T04:08:16.366Z,54.64
2022-08-09T04:09:44.392Z,54.40
2022-08-09T04:10:40.657Z,54.74
2022-08-09T04:11:59.527Z,53.98
2022-08-09T04:13:11.307Z,53.95
2022-08-09T04:14:53.016Z,53.75
2022-08-09T04:15:52.400Z,53.91
2022-08-09T04:16:57.436Z,53.56
2022-08-09T04:17:59.134Z,53.71
2022-08-09T04:19:01.134Z,52.97
2022-08-09T04:20:04.527Z,52.21
2022-08-09T04:21:06.868Z,52.17
2022-08-09T04:22:13.084Z,52.23
2022-08-09T04:23:16.746Z,52.36
2022-08-09T04:24:19.345Z,51.76
2022-08-09T04:25:21.819Z,51.52
2022-08-09T04:26:23.827Z,51.63
2022-08-09T04:27:25.820Z,51.69
2022-08-09T04:28:35.902Z,51.48
2022-08-09T04:29:38.302Z,51.97
2022-08-09T04:30:42.753Z,52.06
2022-08-09T04:31:47.634Z,52.00
2022-08-09T04:32:50.896Z,52.50
2022-08-09T04:33:57.059Z,52.55
2022-08-09T04:35:01.594Z,52.76
2022-08-09T04:36:03.769Z,52.76
2022-08-09T04:37:05.933Z,52.74
2022-08-09T04:38:07.925Z,52.82
2022-08-09T04:39:09.687Z,52.95
2022-08-09T04:40:28.449Z,53.18
2022-08-09T04:41:43.421Z,53.12
2022-08-09T04:42:45.916Z,53.38
2022-08-09T04:44:05.574Z,53.32
2022-08-09T04:45:11.568Z,52.96
2022-08-09T04:46:19.224Z,52.75
2022-08-09T04:47:59.485Z,52.92
2022-08-09T04:48:58.538Z,52.57
2022-08-09T04:50:00.385Z,52.55
2022-08-09T04:51:02.249Z,52.23
2022-08-09T04:52:05.986Z,52.43
2022-08-09T04:53:13.170Z,52.32
2022-08-09T04:54:15.514Z,52.09
2022-08-09T04:55:19.245Z,52.30
2022-08-09T04:56:21.515Z,51.84
2022-08-09T04:57:58.854Z,51.39
2022-08-09T04:58:50.886Z,51.36
2022-08-09T04:59:54.499Z,51.32
2022-08-09T05:00:56.340Z,51.41
2022-08-09T05:02:02.718Z,51.28
2022-08-09T05:03:12.777Z,51.22
2022-08-09T05:04:30.987Z,50.98
2022-08-09T05:05:52.413Z,50.78
2022-08-09T05:06:54.888Z,49.98
2022-08-09T05:07:58.536Z,49.96
2022-08-09T05:09:01.338Z,49.66
2022-08-09T05:10:03.849Z,50.52
2022-08-09T05:11:06.709Z,50.11
2022-08-09T05:12:11.002Z,49.84
2022-08-09T05:13:14.432Z,49.72
2022-08-09T05:14:16.322Z,50.11
2022-08-09T05:15:38.774Z,50.01
2022-08-09T05:16:58.098Z,50.29
2022-08-09T05:18:50.949Z,50.02
2022-08-09T05:19:25.602Z,50.06
2022-08-09T05:20:30.003Z,50.25
2022-08-09T05:21:36.635Z,50.05
2022-08-09T05:23:57.950Z,50.15
2022-08-09T05:24:12.298Z,50.07
2022-08-09T05:25:16.367Z,49.89
2022-08-09T05:26:37.234Z,50.17
2022-08-09T05:27:46.416Z,49.96
2022-08-09T05:28:49.854Z,50.18
2022-08-09T05:29:53.965Z,50.41
2022-08-09T05:30:56.046Z,50.59
2022-08-09T05:32:00.472Z,50.55
2022-08-09T05:33:02.328Z,50.76
2022-08-09T05:34:03.962Z,50.71
2022-08-09T05:35:06.615Z,50.56
2022-08-09T05:36:09.489Z,50.40
2022-08-09T05:37:13.510Z,50.02
2022-08-09T05:38:22.039Z,50.10
2022-08-09T05:39:29.542Z,50.02
2022-08-09T05:40:37.718Z,49.46
2022-08-09T05:41:39.532Z,49.94
2022-08-09T05:42:42.108Z,49.71
2022-08-09T05:43:45.105Z,49.68
2022-08-09T05:44:52.856Z,49.73
2022-08-09T05:45:56.671Z,49.52
2022-08-09T05:46:59.301Z,49.27
2022-08-09T05:48:01.457Z,49.38
2022-08-09T05:49:03.658Z,49.33
2022-08-09T05:50:25.887Z,49.13
2022-08-09T05:51:46.061Z,50.16
2022-08-09T05:52:53.510Z,50.34
2022-08-09T05:53:57.447Z,49.77
2022-08-09T05:55:03.113Z,49.51
2022-08-09T05:56:10.396Z,49.86
2022-08-09T05:57:19.318Z,49.50
2022-08-09T05:58:21.244Z,49.37
2022-08-09T05:59:23.008Z,49.11
2022-08-09T06:00:32.946Z,48.98
2022-08-09T06:01:42.722Z,48.82
2022-08-09T06:02:46.735Z,48.62
2022-08-09T06:03:58.181Z,49.09
2022-08-09T06:05:00.952Z,49.11
2022-08-09T06:06:04.902Z,49.57
2022-08-09T06:07:08.034Z,49.73
2022-08-09T06:08:11.460Z,49.70
2022-08-09T06:09:41.140Z,48.86
2022-08-09T06:10:37.904Z,48.98
2022-08-09T06:11:40.946Z,48.53
2022-08-09T06:13:12.405Z,48.23
2022-08-09T06:14:20.930Z,48.16
2022-08-09T06:15:22.576Z,48.17
2022-08-09T06:16:29.534Z,47.65
2022-08-09T06:17:39.875Z,47.70
2022-08-09T06:18:41.809Z,47.58
2022-08-09T06:19:44.102Z,47.20
2022-08-09T06:20:54.275Z,47.29
2022-08-09T06:21:58.822Z,47.10
2022-08-09T06:23:00.752Z,46.45
2022-08-09T06:24:02.773Z,46.49
2022-08-09T06:25:08.746Z,46.44
2022-08-09T06:26:20.545Z,45.39
2022-08-09T06:27:23.377Z,45.43
2022-08-09T06:28:27.456Z,45.38
2022-08-09T06:29:33.750Z,45.09
2022-08-09T06:30:50.359Z,44.74
2022-08-09T06:32:08.794Z,45.01
2022-08-09T06:33:40.121Z,45.45
2022-08-09T06:34:35.995Z,45.59
2022-08-09T06:35:57.123Z,45.74
2022-08-09T06:37:00.474Z,45.14
2022-08-09T06:38:05.771Z,44.23
2022-08-09T06:39:11.452Z,43.96
2022-08-09T06:40:21.813Z,43.68
2022-08-09T06:41:58.824Z,42.81
2022-08-09T06:42:50.930Z,42.26
2022-08-09T06:43:53.194Z,42.86
2022-08-09T06:44:55.369Z,42.63
2022-08-09T06:46:07.003Z,42.35
2022-08-09T06:47:12.797Z,42.34
2022-08-09T06:48:16.825Z,42.13
2022-08-09T06:50:11.311Z,41.72
2022-08-09T06:50:54.061Z,40.95
2022-08-09T06:51:56.073Z,41.19
2022-08-09T06:52:58.929Z,41.61
2022-08-09T06:54:01.216Z,42.42
2022-08-09T06:55:10.045Z,41.88
2022-08-09T06:56:14.408Z,41.99
2022-08-09T06:57:16.478Z,42.41
2022-08-09T07:00:46.607Z,42.17
2022-08-09T07:00:54.788Z,41.96
2022-08-09T07:01:02.368Z,41.59
2022-08-09T07:02:05.882Z,41.34
2022-08-09T07:03:07.988Z,40.87
2022-08-09T07:04:20.133Z,40.16
2022-08-09T07:05:22.227Z,39.13
2022-08-09T07:06:25.585Z,38.55
2022-08-09T07:08:00.986Z,37.78
2022-08-09T07:08:51.613Z,37.10
2022-08-09T07:10:00.168Z,36.98
2022-08-09T07:11:23.527Z,36.66
2022-08-09T07:12:41.121Z,36.55
2022-08-09T07:13:45.360Z,36.73
2022-08-09T07:16:38.681Z,36.68
2022-08-09T07:16:41.008Z,36.74
2022-08-09T07:17:55.988Z,36.28
2022-08-09T07:18:58.190Z,35.57
2022-08-09T07:20:00.651Z,35.88
2022-08-09T07:21:02.470Z,35.96
2022-08-09T07:22:10.832Z,36.08
2022-08-09T07:23:18.736Z,35.98
2022-08-09T07:24:21.562Z,36.09
2022-08-09T07:25:38.829Z,35.79
2022-08-09T07:26:44.467Z,36.39
2022-08-09T07:27:53.487Z,37.61
2022-08-09T07:29:08.541Z,37.92
2022-08-09T07:30:13.468Z,37.82
2022-08-09T07:31:15.228Z,37.88
2022-08-09T07:32:17.751Z,37.67
2022-08-09T07:33:19.809Z,37.56
2022-08-09T07:34:21.890Z,37.86
2022-08-09T07:35:30.806Z,37.46
2022-08-09T07:36:55.014Z,37.38
2022-08-09T07:37:59.417Z,36.97
2022-08-09T07:39:02.266Z,36.74
2022-08-09T07:40:05.146Z,36.47
2022-08-09T07:41:11.560Z,36.19
2022-08-09T07:42:15.015Z,36.38
2022-08-09T07:43:17.229Z,36.72
2022-08-09T07:44:32.850Z,36.96
2022-08-09T07:45:40.961Z,37.24
2022-08-09T07:46:43.126Z,36.73
2022-08-09T07:48:00.446Z,36.69
2022-08-09T07:49:03.443Z,36.73
2022-08-09T07:50:08.505Z,36.45
2022-08-09T07:52:04.420Z,35.94
2022-08-09T07:52:33.350Z,36.04
2022-08-09T07:54:05.290Z,35.98
2022-08-09T07:55:01.338Z,36.66
2022-08-09T07:56:26.606Z,36.53
2022-08-09T07:57:35.947Z,36.20
2022-08-09T07:58:38.069Z,35.77
2022-08-09T07:59:45.684Z,35.32
2022-08-09T08:00:55.947Z,35.26
2022-08-09T08:02:08.852Z,35.55
2022-08-09T08:03:11.593Z,35.45
2022-08-09T08:04:13.271Z,35.19
2022-08-09T08:05:18.102Z,34.85
2022-08-09T08:06:21.215Z,34.83
2022-08-09T08:08:43.723Z,35.54
2022-08-09T08:09:03.549Z,36.10
2022-08-09T08:10:10.849Z,35.46
2022-08-09T08:12:09.275Z,35.79
2022-08-09T08:12:37.096Z,34.95
2022-08-09T08:13:56.355Z,34.44
2022-08-09T08:14:59.819Z,34.35
2022-08-09T08:16:01.504Z,34.25
2022-08-09T08:17:08.672Z,34.38
2022-08-09T08:18:11.112Z,33.92
2022-08-09T08:19:17.425Z,33.92
2022-08-09T08:20:32.698Z,33.97
2022-08-09T08:21:39.806Z,34.10
2022-08-09T08:22:41.783Z,33.60
2022-08-09T08:23:43.641Z,32.92
2022-08-09T08:24:57.636Z,32.30
2022-08-09T08:26:08.002Z,32.10
2022-08-09T08:27:16.723Z,31.89
2022-08-09T08:28:32.471Z,31.50
2022-08-09T08:29:39.415Z,31.76
2022-08-09T08:30:47.496Z,31.83
2022-08-09T08:32:03.705Z,31.63
2022-08-09T08:33:11.945Z,31.59
2022-08-09T08:34:25.444Z,30.50
2022-08-09T08:35:36.973Z,30.18
2022-08-09T08:36:49.287Z,29.51
2022-08-09T08:38:02.188Z,29.45
2022-08-09T08:39:11.594Z,28.86
2022-08-09T08:40:13.896Z,28.80
2022-08-09T08:41:16.957Z,28.37
2022-08-09T08:42:19.182Z,28.32
2022-08-09T08:43:37.288Z,27.63
2022-08-09T08:44:41.362Z,27.38
2022-08-09T08:45:51.655Z,27.76
2022-08-09T08:47:12.493Z,27.13
2022-08-09T08:48:19.423Z,27.38
2022-08-09T08:49:26.804Z,27.05
2022-08-09T08:50:41.220Z,27.73
2022-08-09T08:52:00.320Z,28.03
2022-08-09T08:53:11.979Z,28.25
2022-08-09T08:54:20.104Z,28.54
2022-08-09T08:55:24.505Z,28.19
2022-08-09T08:56:28.466Z,27.27
2022-08-09T08:57:34.713Z,26.84
2022-08-09T08:58:37.712Z,27.11
2022-08-09T08:59:44.766Z,28.05
2022-08-09T09:00:56.249Z,28.48
2022-08-09T09:01:59.941Z,27.98
2022-08-09T09:03:16.436Z,28.09
2022-08-09T09:04:31.917Z,28.36
2022-08-09T09:06:00.438Z,28.46
2022-08-09T09:07:07.962Z,28.16
2022-08-09T09:08:30.319Z,27.37
2022-08-09T09:09:58.456Z,27.50
2022-08-09T09:10:57.685Z,27.10
2022-08-09T09:11:59.999Z,26.26
2022-08-09T09:13:09.234Z,26.04
2022-08-09T09:14:22.192Z,25.63
2022-08-09T09:15:28.662Z,25.13
2022-08-09T09:16:34.084Z,25.66
2022-08-09T09:17:49.034Z,26.41
2022-08-09T09:19:15.735Z,26.45
2022-08-09T09:20:17.340Z,26.47
2022-08-09T09:21:26.080Z,27.43
2022-08-09T09:22:29.544Z,27.71
2022-08-09T09:23:57.234Z,27.51
2022-08-09T09:26:02.186Z,26.50
2022-08-09T09:26:23.765Z,25.93
2022-08-09T09:28:06.739Z,26.00
2022-08-09T09:29:03.663Z,25.76
2022-08-09T09:30:32.907Z,25.35
2022-08-09T09:32:06.012Z,25.59
2022-08-09T09:33:16.287Z,25.46
2022-08-09T09:34:19.325Z,25.42
2022-08-09T09:35:21.062Z,24.53
2022-08-09T09:36:22.699Z,24.29
2022-08-09T09:37:31.979Z,24.66
2022-08-09T09:38:57.393Z,24.35
2022-08-09T09:40:00.771Z,24.18
2022-08-09T09:41:04.959Z,23.83
2022-08-09T09:42:24.367Z,23.79
2022-08-09T09:43:26.374Z,24.17
2022-08-09T09:44:33.874Z,24.12
2022-08-09T09:46:41.748Z,23.93
2022-08-09T09:47:16.603Z,24.36
2022-08-09T09:48:20.863Z,24.51
2022-08-09T09:49:49.839Z,24.00
2022-08-09T09:50:51.076Z,24.20
2022-08-09T09:52:02.020Z,24.17
2022-08-09T09:53:04.104Z,24.32
2022-08-09T09:54:19.251Z,24.19
2022-08-09T09:55:28.632Z,24.15
2022-08-09T09:56:36.987Z,24.65
2022-08-09T09:58:16.371Z,24.79
2022-08-09T09:59:35.485Z,25.03
2022-08-09T10:00:44.280Z,24.50
2022-08-09T10:02:02.498Z,24.59
2022-08-09T10:03:11.964Z,24.16
2022-08-09T10:04:22.772Z,24.47
2022-08-09T10:06:03.674Z,24.29
2022-08-09T10:06:54.644Z,24.18
2022-08-09T10:08:25.943Z,24.40
2022-08-09T10:09:48.610Z,24.08
2022-08-09T10:10:54.068Z,24.09
2022-08-09T10:12:14.635Z,24.03
2022-08-09T10:13:43.082Z,23.64
2022-08-09T10:14:48.421Z,23.74
2022-08-09T10:16:55.556Z,23.71
2022-08-09T10:17:38.785Z,23.92
2022-08-09T10:18:36.310Z,24.17
2022-08-09T10:19:40.704Z,23.96
2022-08-09T10:20:47.827Z,24.36
2022-08-09T10:21:57.026Z,24.66
2022-08-09T10:23:21.865Z,24.68
2022-08-09T10:24:25.676Z,24.14
2022-08-09T10:26:06.267Z,23.96
2022-08-09T10:27:01.582Z,24.15
2022-08-09T10:28:08.199Z,24.65
2022-08-09T10:29:31.073Z,24.60
2022-08-09T10:32:28.589Z,24.13
2022-08-09T10:34:04.599Z,24.18
2022-08-09T10:34:42.612Z,23.61
2022-08-09T10:35:47.016Z,23.75
2022-08-09T10:36:56.895Z,23.85
2022-08-09T10:38:06.139Z,24.20
2022-08-09T10:39:29.472Z,24.42
2022-08-09T10:40:39.007Z,24.70
2022-08-09T10:41:45.583Z,24.58
2022-08-09T10:42:53.033Z,24.17
2022-08-09T10:43:59.646Z,24.66
2022-08-09T10:45:12.105Z,25.15
2022-08-09T10:46:57.732Z,25.64
2022-08-09T10:48:22.685Z,25.38
2022-08-09T10:49:51.678Z,25.11
2022-08-09T10:51:09.413Z,24.84
2022-08-09T10:52:20.545Z,24.72
2022-08-09T10:53:58.339Z,24.67
2022-08-09T10:55:28.854Z,24.64
2022-08-09T10:57:07.736Z,25.20
2022-08-09T10:58:29.824Z,25.38
2022-08-09T10:59:31.929Z,25.28
2022-08-09T11:03:02.652Z,25.43
2022-08-09T11:03:16.112Z,25.00
2022-08-09T11:04:30.171Z,25.30
2022-08-09T11:05:33.803Z,25.15
2022-08-09T11:06:39.938Z,24.81
2022-08-09T11:07:57.869Z,24.47
2022-08-09T11:09:15.957Z,24.32
2022-08-09T11:10:53.366Z,24.67
2022-08-09T11:12:00.848Z,24.71
2022-08-09T11:13:49.234Z,24.93
2022-08-09T11:14:48.762Z,24.69
2022-08-09T11:16:04.381Z,24.45
2022-08-09T11:17:19.401Z,23.34
2022-08-09T11:18:45.114Z,23.98
2022-08-09T11:20:20.452Z,24.40
2022-08-09T11:21:57.305Z,24.97
2022-08-09T11:23:13.737Z,25.43
2022-08-09T11:24:15.681Z,24.92
2022-08-09T11:25:18.678Z,25.02
2022-08-09T11:26:40.762Z,25.16
2022-08-09T11:28:08.386Z,25.61
2022-08-09T11:30:06.077Z,25.65
2022-08-09T11:31:49.043Z,24.95
2022-08-09T11:33:04.286Z,25.23
2022-08-09T11:34:13.309Z,25.20
2022-08-09T11:35:35.320Z,25.77
2022-08-09T11:36:51.419Z,25.29
2022-08-09T11:37:59.282Z,25.21
2022-08-09T11:39:02.755Z,24.94
2022-08-09T11:40:07.522Z,25.55
2022-08-09T11:41:13.835Z,25.98
2022-08-09T11:42:38.641Z,25.40
2022-08-09T11:43:48.897Z,25.03
2022-08-09T11:44:53.114Z,25.16
2022-08-09T11:46:01.420Z,24.70
2022-08-09T11:47:03.397Z,24.76
2022-08-09T11:48:28.173Z,24.75
2022-08-09T11:50:54.921Z,24.90
2022-08-09T11:52:56.898Z,24.46
2022-08-09T11:53:15.991Z,24.45
2022-08-09T11:54:29.834Z,24.79
2022-08-09T11:55:53.175Z,25.05
2022-08-09T11:57:47.363Z,25.35
2022-08-09T11:59:01.761Z,25.14
2022-08-09T12:00:16.339Z,25.62
2022-08-09T12:02:15.839Z,25.78
2022-08-09T12:02:54.579Z,25.86
2022-08-09T12:04:04.735Z,26.23
2022-08-09T12:05:07.185Z,25.98
2022-08-09T12:06:26.739Z,26.58
2022-08-09T12:07:42.042Z,26.72
2022-08-09T12:08:52.057Z,26.52
2022-08-09T12:09:53.778Z,26.26
2022-08-09T12:10:59.162Z,26.11
2022-08-09T12:12:13.151Z,26.04
2022-08-09T12:14:09.950Z,26.31
2022-08-09T12:15:48.921Z,26.28
2022-08-09T12:16:44.062Z,26.62
2022-08-09T12:17:53.411Z,26.05
2022-08-09T12:18:59.455Z,26.44
2022-08-09T12:20:11.265Z,26.58
2022-08-09T12:21:38.271Z,26.93
2022-08-09T12:22:41.439Z,26.82
2022-08-09T12:24:06.303Z,26.75
2022-08-09T12:25:31.947Z,26.49
2022-08-09T12:26:44.907Z,26.50
2022-08-09T12:29:14.404Z,26.93
2022-08-09T12:29:43.919Z,26.57
2022-08-09T12:30:57.929Z,26.26
2022-08-09T12:32:06.160Z,26.72
2022-08-09T12:33:07.923Z,26.09
2022-08-09T12:34:09.657Z,25.81
2022-08-09T12:35:16.978Z,26.11
2022-08-09T12:36:32.238Z,26.31
2022-08-09T12:37:50.528Z,26.03
2022-08-09T12:38:55.436Z,26.04
2022-08-09T12:40:05.695Z,25.71
2022-08-09T12:41:07.756Z,25.48
2022-08-09T12:42:16.386Z,25.48
2022-08-09T12:43:23.902Z,25.70
2022-08-09T12:44:46.378Z,25.79
2022-08-09T12:45:59.630Z,25.82
2022-08-09T12:47:02.203Z,26.00
2022-08-09T12:48:19.884Z,25.60
2022-08-09T12:49:31.448Z,25.42
2022-08-09T12:50:36.290Z,25.46
2022-08-09T12:52:00.613Z,25.65
2022-08-09T12:53:08.773Z,26.11
2022-08-09T12:54:21.316Z,26.36
2022-08-09T12:56:12.305Z,26.48
2022-08-09T12:56:56.340Z,26.39
2022-08-09T12:58:10.631Z,26.55
2022-08-09T12:59:39.970Z,25.97
2022-08-09T13:00:52.725Z,25.87
2022-08-09T13:02:09.557Z,25.72
2022-08-09T13:03:24.448Z,25.63
2022-08-09T13:04:38.156Z,25.79
2022-08-09T13:05:51.709Z,25.73
2022-08-09T13:07:19.946Z,25.76
2022-08-09T13:08:40.933Z,26.08
2022-08-09T13:09:55.131Z,26.46
2022-08-09T13:11:00.607Z,26.16
2022-08-09T13:12:15.196Z,26.45
2022-08-09T13:14:11.811Z,26.36
2022-08-09T13:15:08.633Z,26.76
2022-08-09T13:16:15.757Z,26.54
2022-08-09T13:17:44.024Z,26.65
2022-08-09T13:18:44.086Z,26.50
2022-08-09T13:20:09.709Z,26.14
2022-08-09T13:22:35.319Z,26.55
2022-08-09T13:23:01.156Z,26.22
2022-08-09T13:24:44.348Z,26.17
2022-08-09T13:25:54.410Z,26.30
2022-08-09T13:26:58.805Z,25.82
2022-08-09T13:28:09.651Z,26.12
2022-08-09T13:29:41.989Z,25.89
2022-08-09T13:30:50.334Z,26.51
2022-08-09T13:32:17.272Z,26.53
2022-08-09T13:33:23.341Z,26.61
2022-08-09T13:34:30.925Z,26.77
2022-08-09T13:36:23.483Z,26.56
2022-08-09T13:36:57.342Z,26.64
2022-08-09T13:38:00.213Z,27.01
2022-08-09T13:41:17.773Z,27.24
2022-08-09T13:41:52.158Z,26.71
2022-08-09T13:41:57.183Z,26.35
2022-08-09T13:43:03.472Z,25.83
2022-08-09T13:44:07.058Z,25.58
2022-08-09T13:45:12.452Z,25.46
2022-08-09T13:47:17.889Z,24.98
2022-08-09T13:47:43.974Z,25.09
2022-08-09T13:48:52.468Z,24.61
2022-08-09T13:49:57.835Z,25.35
2022-08-09T13:51:02.729Z,25.34
2022-08-09T13:52:05.636Z,25.05
2022-08-09T13:53:11.298Z,24.92
2022-08-09T13:54:13.439Z,25.20
2022-08-09T13:55:17.585Z,25.10
2022-08-09T13:56:19.527Z,24.54
2022-08-09T13:57:36.399Z,24.43
2022-08-09T13:58:40.802Z,24.33
2022-08-09T13:59:43.712Z,24.93
2022-08-09T14:00:48.282Z,25.25
2022-08-09T14:02:00.731Z,25.40
2022-08-09T14:04:01.907Z,24.99
2022-08-09T14:04:26.539Z,24.52
2022-08-09T14:05:56.941Z,24.92
2022-08-09T14:06:57.674Z,24.57
2022-08-09T14:08:03.703Z,23.95
2022-08-09T14:09:06.544Z,24.00
2022-08-09T14:10:17.380Z,24.31
2022-08-09T14:11:46.857Z,24.03
2022-08-09T14:12:49.510Z,23.92
2022-08-09T14:14:22.794Z,23.83
2022-08-09T14:16:06.736Z,24.50
2022-08-09T14:16:34.937Z,24.11
2022-08-09T14:18:20.018Z,24.37
2022-08-09T14:19:00.439Z,24.17
2022-08-09T14:20:05.567Z,23.92
2022-08-09T14:21:08.535Z,24.06
2022-08-09T14:22:11.035Z,24.04
2022-08-09T14:23:20.234Z,24.01
2022-08-09T14:24:34.731Z,24.01
2022-08-09T14:25:43.091Z,24.41
2022-08-09T14:26:46.747Z,24.53
2022-08-09T14:27:58.290Z,24.57
2022-08-09T14:29:25.645Z,25.32
2022-08-09T14:30:41.546Z,24.95
2022-08-09T14:31:52.031Z,25.20
2022-08-09T14:32:55.619Z,25.01
2022-08-09T14:33:59.474Z,25.88
2022-08-09T14:35:07.360Z,25.40
2022-08-09T14:36:19.684Z,26.09
2022-08-09T14:37:22.131Z,25.85
2022-08-09T14:38:30.313Z,25.51
2022-08-09T14:39:46.157Z,25.35
2022-08-09T14:41:04.221Z,25.69
2022-08-09T14:42:11.801Z,25.56
2022-08-09T14:43:15.867Z,26.16
2022-08-09T14:44:32.390Z,26.29
2022-08-09T14:46:54.206Z,26.30
2022-08-09T14:47:27.518Z,26.42
2022-08-09T14:48:26.710Z,26.26
2022-08-09T14:49:28.889Z,25.94
2022-08-09T14:50:37.288Z,26.25
2022-08-09T14:51:42.269Z,26.73
2022-08-09T14:52:50.013Z,27.10
2022-08-09T14:53:52.958Z,27.31
2022-08-09T14:54:54.757Z,26.92
2022-08-09T14:55:56.400Z,27.21
2022-08-09T14:56:59.129Z,27.22
2022-08-09T14:58:03.567Z,27.11
2022-08-09T14:59:05.577Z,27.13
2022-08-09T15:00:13.307Z,27.15
2022-08-09T15:01:15.235Z,27.68
2022-08-09T15:02:17.755Z,27.64
2022-08-09T15:03:22.395Z,27.13
2022-08-09T15:04:24.166Z,27.08
2022-08-09T15:05:26.427Z,27.39
2022-08-09T15:06:28.861Z,27.51
2022-08-09T15:07:31.663Z,27.83
2022-08-09T15:08:37.460Z,27.83
2022-08-09T15:10:07.284Z,28.04
2022-08-09T15:11:07.037Z,28.31
2022-08-09T15:12:09.870Z,27.96
2022-08-09T15:13:13.674Z,27.83
2022-08-09T15:14:15.536Z,27.70
2022-08-09T15:15:21.862Z,27.39
2022-08-09T15:16:23.906Z,27.39
2022-08-09T15:17:32.132Z,26.80
2022-08-09T15:18:43.855Z,26.38
2022-08-09T15:19:58.973Z,26.33